createdAt,value
2023-03-22T00:00:34.825Z,8.53
2023-03-22T00:01:34.822Z,8.50
2023-03-22T00:02:34.847Z,8.47
2023-03-22T00:03:34.762Z,8.45
2023-03-22T00:04:34.736Z,8.42
2023-03-22T00:05:34.729Z,8.39
2023-03-22T00:06:34.687Z,8.35
2023-03-22T00:07:34.707Z,8.33
2023-03-22T00:08:34.685Z,8.30
2023-03-22T00:09:34.655Z,8.26
2023-03-22T00:10:34.635Z,8.25
2023-03-22T00:11:34.643Z,8.25
2023-03-22T00:12:34.688Z,8.25
2023-03-22T00:13:35.739Z,8.24
2023-03-22T00:14:34.581Z,8.22
2023-03-22T00:15:34.576Z,8.20
2023-03-22T00:16:34.579Z,8.18
2023-03-22T00:17:34.629Z,8.18
2023-03-22T00:18:34.548Z,8.19
2023-03-22T00:19:34.544Z,8.20
2023-03-22T00:20:34.497Z,8.21
2023-03-22T00:21:34.505Z,8.20
2023-03-22T00:22:34.477Z,8.18
2023-03-22T00:23:34.583Z,8.16
2023-03-22T00:24:34.452Z,8.13
2023-03-22T00:25:34.482Z,8.10
2023-03-22T00:26:34.442Z,8.07
2023-03-22T00:27:34.435Z,8.06
2023-03-22T00:28:34.410Z,8.07
2023-03-22T00:29:34.386Z,8.08
2023-03-22T00:30:34.376Z,8.07
2023-03-22T00:31:34.429Z,8.06
2023-03-22T00:32:34.684Z,8.06
2023-03-22T00:33:34.368Z,8.08
2023-03-22T00:34:34.670Z,8.08
2023-03-22T00:35:34.337Z,8.08
2023-03-22T00:36:34.340Z,8.08
2023-03-22T00:37:34.336Z,8.08
2023-03-22T00:38:42.058Z,8.09
2023-03-22T00:39:34.297Z,8.10
2023-03-22T00:40:34.277Z,8.10
2023-03-22T00:41:34.266Z,8.11
2023-03-22T00:42:34.229Z,8.11
2023-03-22T00:43:34.222Z,8.11
2023-03-22T00:44:34.228Z,8.12
2023-03-22T00:45:34.180Z,8.12
2023-03-22T00:46:34.218Z,8.13
2023-03-22T00:47:34.174Z,8.13
2023-03-22T00:48:34.260Z,8.13
2023-03-22T00:49:34.160Z,8.12
2023-03-22T00:50:34.142Z,8.09
2023-03-22T00:51:34.138Z,8.07
2023-03-22T00:52:34.097Z,8.07
2023-03-22T00:53:34.078Z,8.08
2023-03-22T00:54:34.106Z,8.09
2023-03-22T00:55:34.067Z,8.09
2023-03-22T00:56:34.075Z,8.09
2023-03-22T00:57:34.070Z,8.10
2023-03-22T00:58:34.027Z,8.09
2023-03-22T00:59:34.027Z,8.08
2023-03-22T01:00:33.991Z,8.07
2023-03-22T01:01:34.040Z,8.06
2023-03-22T01:02:33.977Z,8.05
2023-03-22T01:03:34.019Z,8.04
2023-03-22T01:04:33.947Z,8.04
2023-03-22T01:05:33.934Z,8.04
2023-03-22T01:06:33.916Z,8.02
2023-03-22T01:07:33.935Z,7.99
2023-03-22T01:08:33.900Z,7.99
2023-03-22T01:09:33.905Z,8.01
2023-03-22T01:10:33.883Z,8.02
2023-03-22T01:11:33.855Z,8.04
2023-03-22T01:12:33.846Z,8.07
2023-03-22T01:13:33.853Z,8.08
2023-03-22T01:14:33.800Z,8.10
2023-03-22T01:15:33.787Z,8.12
2023-03-22T01:16:33.826Z,8.13
2023-03-22T01:17:33.751Z,8.14
2023-03-22T01:18:33.771Z,8.14
2023-03-22T01:19:33.753Z,8.15
2023-03-22T01:20:33.740Z,8.17
2023-03-22T01:21:33.772Z,8.18
2023-03-22T01:22:33.704Z,8.18
2023-03-22T01:23:33.698Z,8.19
2023-03-22T01:24:33.713Z,8.19
2023-03-22T01:25:33.647Z,8.18
2023-03-22T01:26:33.632Z,8.18
2023-03-22T01:27:33.654Z,8.18
2023-03-22T01:28:33.648Z,8.17
2023-03-22T01:29:33.604Z,8.16
2023-03-22T01:30:33.651Z,8.15
2023-03-22T01:31:33.582Z,8.15
2023-03-22T01:32:33.578Z,8.15
2023-03-22T01:33:33.568Z,8.15
2023-03-22T01:34:33.578Z,8.15
2023-03-22T01:35:33.531Z,8.16
2023-03-22T01:36:33.517Z,8.16
2023-03-22T01:37:33.486Z,8.15
2023-03-22T01:38:33.549Z,8.14
2023-03-22T01:39:33.510Z,8.13
2023-03-22T01:40:33.484Z,8.13
2023-03-22T01:41:33.450Z,8.13
2023-03-22T01:42:33.463Z,8.13
2023-03-22T01:43:33.407Z,8.13
2023-03-22T01:44:33.410Z,8.12
2023-03-22T01:45:33.382Z,8.12
2023-03-22T01:46:33.558Z,8.12
2023-03-22T01:47:33.393Z,8.12
2023-03-22T01:48:33.366Z,8.12
2023-03-22T01:49:33.335Z,8.12
2023-03-22T01:50:33.320Z,8.12
2023-03-22T01:51:33.342Z,8.11
2023-03-22T01:52:33.340Z,8.11
2023-03-22T01:53:33.336Z,8.10
2023-03-22T01:54:33.265Z,8.09
2023-03-22T01:55:33.262Z,8.09
2023-03-22T01:56:33.283Z,8.09
2023-03-22T01:57:33.241Z,8.09
2023-03-22T01:58:33.241Z,8.08
2023-03-22T01:59:33.215Z,8.08
2023-03-22T02:00:33.201Z,8.06
2023-03-22T02:01:33.201Z,8.05
2023-03-22T02:02:33.213Z,8.04
2023-03-22T02:03:33.182Z,8.03
2023-03-22T02:04:33.129Z,8.03
2023-03-22T02:05:33.136Z,8.02
2023-03-22T02:06:33.107Z,8.01
2023-03-22T02:07:33.122Z,8.01
2023-03-22T02:08:33.083Z,8.00
2023-03-22T02:09:33.077Z,8.00
2023-03-22T02:10:33.090Z,7.99
2023-03-22T02:11:33.053Z,7.99
2023-03-22T02:12:33.033Z,7.98
2023-03-22T02:13:33.031Z,7.97
2023-03-22T02:14:33.027Z,7.96
2023-03-22T02:15:33.090Z,7.94
2023-03-22T02:16:32.980Z,7.93
2023-03-22T02:17:32.970Z,7.92
2023-03-22T02:18:32.998Z,7.90
2023-03-22T02:19:32.945Z,7.87
2023-03-22T02:20:32.941Z,7.85
2023-03-22T02:21:32.935Z,7.82
2023-03-22T02:22:32.913Z,7.80
2023-03-22T02:23:32.869Z,7.78
2023-03-22T02:24:32.916Z,7.77
2023-03-22T02:25:32.861Z,7.75
2023-03-22T02:26:32.871Z,7.73
2023-03-22T02:27:32.838Z,7.71
2023-03-22T02:28:32.888Z,7.68
2023-03-22T02:29:32.837Z,7.66
2023-03-22T02:30:32.807Z,7.64
2023-03-22T02:31:32.846Z,7.62
2023-03-22T02:32:32.766Z,7.59
2023-03-22T02:33:32.776Z,7.57
2023-03-22T02:34:32.758Z,7.56
2023-03-22T02:35:32.821Z,7.56
2023-03-22T02:36:32.738Z,7.55
2023-03-22T02:37:32.736Z,7.55
2023-03-22T02:38:32.680Z,7.56
2023-03-22T02:39:32.672Z,7.57
2023-03-22T02:40:32.692Z,7.57
2023-03-22T02:41:32.676Z,7.58
2023-03-22T02:42:32.644Z,7.59
2023-03-22T02:43:32.646Z,7.60
2023-03-22T02:44:32.628Z,7.60
2023-03-22T02:45:32.623Z,7.59
2023-03-22T02:46:32.587Z,7.58
2023-03-22T02:47:32.580Z,7.57
2023-03-22T02:48:32.572Z,7.56
2023-03-22T02:49:32.522Z,7.57
2023-03-22T02:50:32.579Z,7.57
2023-03-22T02:51:32.531Z,7.56
2023-03-22T02:52:32.522Z,7.55
2023-03-22T02:53:32.483Z,7.53
2023-03-22T02:54:32.497Z,7.49
2023-03-22T02:55:32.477Z,7.45
2023-03-22T02:56:32.440Z,7.43
2023-03-22T02:57:32.480Z,7.42
2023-03-22T02:58:32.424Z,7.40
2023-03-22T02:59:32.390Z,7.38
2023-03-22T03:00:32.463Z,7.35
2023-03-22T03:01:32.383Z,7.33
2023-03-22T03:02:32.375Z,7.31
2023-03-22T03:03:32.367Z,7.28
2023-03-22T03:04:32.354Z,7.26
2023-03-22T03:05:32.335Z,7.24
2023-03-22T03:06:32.309Z,7.24
2023-03-22T03:07:32.325Z,7.21
2023-03-22T03:08:32.304Z,7.17
2023-03-22T03:09:32.279Z,7.12
2023-03-22T03:10:32.273Z,7.09
2023-03-22T03:11:32.464Z,7.07
2023-03-22T03:12:32.232Z,7.06
2023-03-22T03:13:32.236Z,7.03
2023-03-22T03:14:32.230Z,7.00
2023-03-22T03:15:32.221Z,6.97
2023-03-22T03:16:32.224Z,6.94
2023-03-22T03:17:32.192Z,6.92
2023-03-22T03:18:32.175Z,6.91
2023-03-22T03:19:32.179Z,6.91
2023-03-22T03:20:32.144Z,6.90
2023-03-22T03:21:32.113Z,6.88
2023-03-22T03:22:32.122Z,6.87
2023-03-22T03:23:32.126Z,6.88
2023-03-22T03:24:32.144Z,6.90
2023-03-22T03:25:32.105Z,6.90
2023-03-22T03:26:32.091Z,6.89
2023-03-22T03:27:32.073Z,6.88
2023-03-22T03:28:32.022Z,6.87
2023-03-22T03:29:32.038Z,6.85
2023-03-22T03:30:32.005Z,6.83
2023-03-22T03:31:32.052Z,6.81
2023-03-22T03:32:31.974Z,6.79
2023-03-22T03:33:31.966Z,6.76
2023-03-22T03:34:31.960Z,6.73
2023-03-22T03:35:31.975Z,6.73
2023-03-22T03:36:31.956Z,6.72
2023-03-22T03:37:31.987Z,6.71
2023-03-22T03:38:31.917Z,6.72
2023-03-22T03:39:31.898Z,6.74
2023-03-22T03:40:31.921Z,6.74
2023-03-22T03:41:31.849Z,6.74
2023-03-22T03:42:31.859Z,6.72
2023-03-22T03:43:31.844Z,6.70
2023-03-22T03:44:31.810Z,6.69
2023-03-22T03:45:31.835Z,6.69
2023-03-22T03:46:31.838Z,6.71
2023-03-22T03:47:31.791Z,6.72
2023-03-22T03:48:31.763Z,6.75
2023-03-22T03:49:31.877Z,6.76
2023-03-22T03:50:31.751Z,6.78
2023-03-22T03:51:31.739Z,6.80
2023-03-22T03:52:31.767Z,6.81
2023-03-22T03:53:31.756Z,6.80
2023-03-22T03:54:31.700Z,6.79
2023-03-22T03:55:31.692Z,6.78
2023-03-22T03:56:31.684Z,6.77
2023-03-22T03:57:31.665Z,6.75
2023-03-22T03:58:31.672Z,6.73
2023-03-22T03:59:31.626Z,6.70
2023-03-22T04:00:31.641Z,6.68
2023-03-22T04:01:31.589Z,6.67
2023-03-22T04:02:31.659Z,6.67
2023-03-22T04:03:31.589Z,6.66
2023-03-22T04:04:31.589Z,6.65
2023-03-22T04:05:31.557Z,6.64
2023-03-22T04:06:31.526Z,6.62
2023-03-22T04:07:31.598Z,6.60
2023-03-22T04:08:31.514Z,6.59
2023-03-22T04:09:31.518Z,6.58
2023-03-22T04:10:31.508Z,6.57
2023-03-22T04:11:31.462Z,6.55
2023-03-22T04:12:31.452Z,6.53
2023-03-22T04:13:31.458Z,6.52
2023-03-22T04:14:31.447Z,6.50
2023-03-22T04:15:31.480Z,6.49
2023-03-22T04:16:31.461Z,6.48
2023-03-22T04:17:31.400Z,6.45
2023-03-22T04:18:31.430Z,6.42
2023-03-22T04:19:31.384Z,6.40
2023-03-22T04:20:31.376Z,6.39
2023-03-22T04:21:31.341Z,6.39
2023-03-22T04:22:31.358Z,6.41
2023-03-22T04:23:32.496Z,6.43
2023-03-22T04:24:31.293Z,6.46
2023-03-22T04:25:31.272Z,6.48
2023-03-22T04:26:31.327Z,6.50
2023-03-22T04:27:31.289Z,6.53
2023-03-22T04:28:31.293Z,6.55
2023-03-22T04:29:31.224Z,6.57
2023-03-22T04:30:31.247Z,6.57
2023-03-22T04:31:31.287Z,6.58
2023-03-22T04:32:31.201Z,6.58
2023-03-22T04:33:31.167Z,6.59
2023-03-22T04:34:31.187Z,6.60
2023-03-22T04:35:31.212Z,6.61
2023-03-22T04:36:31.185Z,6.61
2023-03-22T04:37:31.151Z,6.62
2023-03-22T04:38:31.113Z,6.64
2023-03-22T04:39:31.091Z,6.65
2023-03-22T04:40:31.101Z,6.65
2023-03-22T04:41:31.100Z,6.65
2023-03-22T04:42:31.086Z,6.63
2023-03-22T04:43:31.050Z,6.62
2023-03-22T04:44:31.333Z,6.61
2023-03-22T04:45:31.143Z,6.61
2023-03-22T04:46:31.189Z,6.61
2023-03-22T04:47:31.265Z,6.61
2023-03-22T04:48:31.012Z,6.61
2023-03-22T04:49:30.972Z,6.61
2023-03-22T04:50:30.974Z,6.62
2023-03-22T04:51:30.938Z,6.62
2023-03-22T04:52:30.953Z,6.62
2023-03-22T04:53:30.925Z,6.63
2023-03-22T04:54:30.944Z,6.63
2023-03-22T04:55:30.912Z,6.63
2023-03-22T04:56:30.934Z,6.63
2023-03-22T04:57:30.852Z,6.63
2023-03-22T04:58:30.864Z,6.63
2023-03-22T04:59:30.848Z,6.64
2023-03-22T05:00:30.825Z,6.64
2023-03-22T05:01:34.006Z,6.64
2023-03-22T05:02:31.898Z,6.64
2023-03-22T05:03:30.777Z,6.64
2023-03-22T05:04:30.787Z,6.64
2023-03-22T05:05:30.755Z,6.64
2023-03-22T05:06:31.102Z,6.64
2023-03-22T05:07:31.260Z,6.65
2023-03-22T05:08:30.758Z,6.66
2023-03-22T05:09:30.718Z,6.67
2023-03-22T05:10:30.734Z,6.68
2023-03-22T05:11:30.686Z,6.69
2023-03-22T05:12:30.661Z,6.70
2023-03-22T05:13:30.815Z,6.72
2023-03-22T05:14:30.839Z,6.73
2023-03-22T05:15:30.716Z,6.75
2023-03-22T05:16:30.771Z,6.78
2023-03-22T05:17:30.678Z,6.80
2023-03-22T05:18:30.726Z,6.83
2023-03-22T05:19:30.654Z,6.85
2023-03-22T05:20:30.585Z,6.86
2023-03-22T05:21:30.538Z,6.87
2023-03-22T05:22:30.552Z,6.88
2023-03-22T05:23:30.585Z,6.89
2023-03-22T05:24:30.510Z,6.88
2023-03-22T05:25:30.501Z,6.88
2023-03-22T05:26:30.484Z,6.89
2023-03-22T05:27:30.479Z,6.91
2023-03-22T05:28:30.486Z,6.91
2023-03-22T05:29:30.463Z,6.91
2023-03-22T05:30:30.466Z,6.92
2023-03-22T05:31:30.462Z,6.92
2023-03-22T05:32:30.428Z,6.92
2023-03-22T05:33:30.418Z,6.93
2023-03-22T05:34:30.401Z,6.95
2023-03-22T05:35:30.408Z,6.96
2023-03-22T05:36:30.363Z,6.97
2023-03-22T05:37:30.377Z,6.97
2023-03-22T05:38:30.332Z,6.97
2023-03-22T05:39:30.348Z,6.97
2023-03-22T05:40:30.356Z,6.98
2023-03-22T05:41:30.306Z,6.98
2023-03-22T05:42:30.266Z,6.98
2023-03-22T05:43:30.269Z,6.98
2023-03-22T05:44:30.247Z,6.98
2023-03-22T05:45:30.238Z,6.98
2023-03-22T05:46:30.304Z,6.98
2023-03-22T05:47:30.234Z,6.97
2023-03-22T05:48:30.211Z,6.97
2023-03-22T05:49:30.265Z,6.97
2023-03-22T05:50:30.229Z,6.97
2023-03-22T05:51:30.256Z,6.98
2023-03-22T05:52:30.284Z,6.98
2023-03-22T05:53:30.187Z,6.98
2023-03-22T05:54:30.202Z,6.98
2023-03-22T05:55:30.165Z,6.98
2023-03-22T05:56:30.173Z,7.00
2023-03-22T05:57:30.153Z,7.03
2023-03-22T05:58:30.111Z,7.06
2023-03-22T05:59:30.128Z,7.08
2023-03-22T06:00:30.064Z,7.09
2023-03-22T06:01:30.069Z,7.09
2023-03-22T06:02:30.032Z,7.10
2023-03-22T06:03:30.085Z,7.11
2023-03-22T06:04:29.978Z,7.12
2023-03-22T06:05:29.981Z,7.14
2023-03-22T06:06:30.100Z,7.16
2023-03-22T06:07:29.981Z,7.17
2023-03-22T06:08:29.976Z,7.19
2023-03-22T06:09:29.945Z,7.22
2023-03-22T06:10:29.933Z,7.25
2023-03-22T06:11:29.914Z,7.27
2023-03-22T06:12:30.291Z,7.29
2023-03-22T06:13:29.926Z,7.31
2023-03-22T06:14:29.869Z,7.33
2023-03-22T06:15:29.864Z,7.35
2023-03-22T06:16:29.884Z,7.36
2023-03-22T06:17:29.837Z,7.38
2023-03-22T06:18:29.797Z,7.39
2023-03-22T06:19:29.831Z,7.40
2023-03-22T06:20:29.789Z,7.42
2023-03-22T06:21:29.800Z,7.43
2023-03-22T06:22:29.781Z,7.44
2023-03-22T06:23:29.755Z,7.46
2023-03-22T06:24:29.773Z,7.46
2023-03-22T06:25:29.750Z,7.47
2023-03-22T06:26:29.701Z,7.49
2023-03-22T06:27:29.689Z,7.49
2023-03-22T06:28:29.735Z,7.49
2023-03-22T06:29:29.697Z,7.50
2023-03-22T06:30:29.689Z,7.51
2023-03-22T06:31:29.648Z,7.52
2023-03-22T06:32:29.662Z,7.53
2023-03-22T06:33:29.607Z,7.55
2023-03-22T06:34:29.655Z,7.57
2023-03-22T06:35:29.589Z,7.60
2023-03-22T06:36:29.554Z,7.62
2023-03-22T06:37:29.561Z,7.64
2023-03-22T06:38:29.526Z,7.67
2023-03-22T06:39:29.557Z,7.69
2023-03-22T06:40:29.516Z,7.71
2023-03-22T06:41:29.495Z,7.73
2023-03-22T06:42:29.500Z,7.75
2023-03-22T06:43:29.485Z,7.77
2023-03-22T06:44:29.468Z,7.78
2023-03-22T06:45:29.432Z,7.78
2023-03-22T06:46:29.588Z,7.79
2023-03-22T06:47:29.447Z,7.81
2023-03-22T06:48:29.447Z,7.82
2023-03-22T06:49:29.426Z,7.84
2023-03-22T06:50:29.414Z,7.86
2023-03-22T06:51:29.379Z,7.87
2023-03-22T06:52:29.356Z,7.89
2023-03-22T06:53:29.328Z,7.90
2023-03-22T06:54:29.345Z,7.91
2023-03-22T06:55:29.328Z,7.93
2023-03-22T06:56:29.335Z,7.94
2023-03-22T06:57:29.281Z,7.96
2023-03-22T06:58:29.284Z,7.98
2023-03-22T06:59:29.269Z,8.01
2023-03-22T07:00:29.253Z,8.04
2023-03-22T07:01:29.299Z,8.06
2023-03-22T07:02:29.236Z,8.07
2023-03-22T07:03:29.231Z,8.09
2023-03-22T07:04:29.247Z,8.11
2023-03-22T07:05:29.177Z,8.13
2023-03-22T07:06:29.189Z,8.15
2023-03-22T07:07:29.207Z,8.17
2023-03-22T07:08:29.156Z,8.19
2023-03-22T07:09:29.150Z,8.21
2023-03-22T07:10:29.102Z,8.23
2023-03-22T07:11:29.157Z,8.26
2023-03-22T07:12:29.116Z,8.29
2023-03-22T07:13:29.125Z,8.31
2023-03-22T07:14:29.086Z,8.33
2023-03-22T07:15:29.095Z,8.35
2023-03-22T07:16:29.150Z,8.37
2023-03-22T07:17:29.035Z,8.38
2023-03-22T07:18:29.069Z,8.40
2023-03-22T07:19:29.063Z,8.42
2023-03-22T07:20:29.052Z,8.45
2023-03-22T07:21:29.092Z,8.48
2023-03-22T07:22:29.011Z,8.51
2023-03-22T07:23:28.941Z,8.53
2023-03-22T07:24:28.967Z,8.55
2023-03-22T07:25:28.961Z,8.58
2023-03-22T07:26:28.991Z,8.61
2023-03-22T07:27:28.926Z,8.65
2023-03-22T07:28:28.878Z,8.68
2023-03-22T07:29:28.882Z,8.70
2023-03-22T07:30:28.869Z,8.71
2023-03-22T07:31:28.917Z,8.73
2023-03-22T07:32:28.935Z,8.76
2023-03-22T07:33:28.853Z,8.79
2023-03-22T07:34:28.789Z,8.82
2023-03-22T07:35:28.825Z,8.85
2023-03-22T07:36:28.756Z,8.89
2023-03-22T07:37:28.773Z,8.94
2023-03-22T07:38:28.876Z,8.99
2023-03-22T07:39:28.807Z,9.03
2023-03-22T07:40:28.728Z,9.07
2023-03-22T07:41:28.739Z,9.08
2023-03-22T07:42:28.751Z,9.07
2023-03-22T07:43:28.690Z,9.11
2023-03-22T07:44:28.656Z,9.14
2023-03-22T07:45:28.807Z,9.16
2023-03-22T07:46:28.727Z,9.19
2023-03-22T07:47:40.317Z,9.21
2023-03-22T07:48:28.733Z,9.23
2023-03-22T07:49:28.597Z,9.25
2023-03-22T07:50:28.653Z,9.30
2023-03-22T07:51:28.586Z,9.37
2023-03-22T07:52:28.593Z,9.46
2023-03-22T07:53:28.609Z,9.56
2023-03-22T07:54:33.832Z,9.63
2023-03-22T07:55:28.562Z,9.68
2023-03-22T07:56:28.553Z,9.71
2023-03-22T07:57:28.511Z,9.71
2023-03-22T07:58:28.504Z,9.71
2023-03-22T07:59:28.553Z,9.75
2023-03-22T08:00:28.442Z,9.78
2023-03-22T08:01:28.468Z,9.80
2023-03-22T08:02:28.471Z,9.81
2023-03-22T08:03:28.521Z,9.83
2023-03-22T08:04:28.430Z,9.90
2023-03-22T08:05:28.410Z,9.99
2023-03-22T08:06:28.395Z,10.09
2023-03-22T08:07:28.484Z,10.18
2023-03-22T08:08:28.391Z,10.25
2023-03-22T08:09:28.346Z,10.30
2023-03-22T08:10:28.401Z,10.32
2023-03-22T08:11:28.353Z,10.37
2023-03-22T08:12:28.307Z,10.44
2023-03-22T08:13:28.328Z,10.48
2023-03-22T08:14:36.195Z,10.51
2023-03-22T08:15:28.319Z,10.53
2023-03-22T08:16:28.344Z,10.58
2023-03-22T08:17:28.232Z,10.60
2023-03-22T08:18:28.248Z,10.60
2023-03-22T08:19:28.221Z,10.67
2023-03-22T08:20:28.229Z,10.81
2023-03-22T08:21:28.218Z,10.96
2023-03-22T08:22:28.207Z,11.13
2023-03-22T08:23:40.618Z,11.26
2023-03-22T08:24:28.197Z,11.35
2023-03-22T08:25:28.177Z,11.34
2023-03-22T08:26:28.123Z,11.31
2023-03-22T08:27:28.141Z,11.33
2023-03-22T08:28:28.110Z,11.36
2023-03-22T08:29:28.236Z,11.44
2023-03-22T08:30:28.069Z,11.50
2023-03-22T08:31:28.183Z,11.51
2023-03-22T08:32:28.045Z,11.52
2023-03-22T08:33:28.034Z,11.49
2023-03-22T08:34:28.033Z,11.47
2023-03-22T08:35:28.109Z,11.55
2023-03-22T08:36:27.967Z,11.70
2023-03-22T08:37:27.990Z,11.78
2023-03-22T08:38:27.981Z,11.82
2023-03-22T08:39:27.960Z,11.92
2023-03-22T08:40:28.022Z,12.05
2023-03-22T08:41:27.940Z,12.21
2023-03-22T08:42:27.922Z,12.35
2023-03-22T08:43:27.920Z,12.37
2023-03-22T08:44:27.899Z,12.35
2023-03-22T08:45:27.875Z,12.34
2023-03-22T08:46:27.862Z,12.32
2023-03-22T08:47:27.866Z,12.28
2023-03-22T08:48:27.871Z,12.23
2023-03-22T08:49:27.820Z,12.15
2023-03-22T08:50:27.807Z,12.03
2023-03-22T08:51:27.813Z,11.89
2023-03-22T08:52:27.777Z,11.80
2023-03-22T08:53:27.803Z,11.78
2023-03-22T08:54:27.757Z,11.84
2023-03-22T08:55:27.733Z,11.89
2023-03-22T08:56:27.739Z,11.93
2023-03-22T08:57:27.725Z,12.01
2023-03-22T08:58:27.674Z,12.10
2023-03-22T08:59:27.677Z,12.15
2023-03-22T09:00:39.142Z,12.16
2023-03-22T09:01:27.755Z,12.19
2023-03-22T09:02:27.692Z,12.21
2023-03-22T09:03:27.650Z,12.26
2023-03-22T09:04:27.783Z,12.35
2023-03-22T09:05:27.602Z,12.50
2023-03-22T09:06:27.598Z,12.63
2023-03-22T09:07:27.621Z,12.73
2023-03-22T09:08:27.572Z,12.83
2023-03-22T09:09:27.598Z,13.03
2023-03-22T09:10:27.545Z,13.32
2023-03-22T09:11:27.532Z,13.62
2023-03-22T09:12:27.506Z,13.93
2023-03-22T09:13:27.503Z,14.17
2023-03-22T09:14:27.506Z,14.45
2023-03-22T09:15:27.504Z,14.75
2023-03-22T09:16:27.505Z,15.00
2023-03-22T09:17:27.571Z,15.28
2023-03-22T09:18:27.469Z,15.48
2023-03-22T09:19:27.401Z,15.59
2023-03-22T09:20:27.416Z,15.57
2023-03-22T09:21:27.463Z,15.48
2023-03-22T09:22:27.376Z,15.48
2023-03-22T09:23:27.380Z,15.62
2023-03-22T09:24:27.341Z,15.87
2023-03-22T09:25:27.336Z,16.13
2023-03-22T09:26:27.379Z,16.45
2023-03-22T09:27:27.311Z,16.74
2023-03-22T09:28:27.340Z,16.87
2023-03-22T09:29:27.333Z,16.98
2023-03-22T09:30:27.358Z,17.00
2023-03-22T09:31:27.380Z,16.97
2023-03-22T09:32:27.287Z,16.87
2023-03-22T09:33:27.303Z,16.67
2023-03-22T09:34:27.232Z,16.59
2023-03-22T09:35:27.304Z,16.72
2023-03-22T09:36:27.206Z,16.60
2023-03-22T09:37:27.204Z,16.23
2023-03-22T09:38:27.177Z,15.83
2023-03-22T09:39:27.160Z,15.64
2023-03-22T09:40:27.156Z,15.71
2023-03-22T09:41:27.150Z,15.86
2023-03-22T09:42:27.184Z,16.09
2023-03-22T09:43:27.138Z,16.34
2023-03-22T09:44:27.091Z,16.60
2023-03-22T09:45:27.091Z,16.78
2023-03-22T09:46:27.129Z,16.94
2023-03-22T09:47:33.209Z,17.18
2023-03-22T09:48:27.123Z,17.33
2023-03-22T09:49:27.023Z,17.39
2023-03-22T09:50:27.038Z,17.26
2023-03-22T09:51:26.997Z,16.91
2023-03-22T09:52:27.076Z,16.47
2023-03-22T09:53:26.970Z,16.15
2023-03-22T09:54:26.966Z,15.95
2023-03-22T09:55:26.948Z,15.65
2023-03-22T09:56:26.963Z,15.27
2023-03-22T09:57:26.908Z,14.93
2023-03-22T09:58:27.028Z,14.72
2023-03-22T09:59:26.903Z,14.68
2023-03-22T10:00:26.977Z,14.78
2023-03-22T10:01:27.001Z,14.87
2023-03-22T10:02:26.911Z,14.92
2023-03-22T10:03:26.833Z,14.98
2023-03-22T10:04:26.931Z,14.97
2023-03-22T10:05:26.815Z,14.98
2023-03-22T10:06:28.293Z,15.10
2023-03-22T10:07:26.789Z,15.18
2023-03-22T10:08:26.776Z,15.23
2023-03-22T10:09:26.772Z,15.48
2023-03-22T10:10:26.751Z,15.95
2023-03-22T10:11:26.801Z,16.49
2023-03-22T10:12:26.933Z,16.79
2023-03-22T10:13:26.720Z,16.66
2023-03-22T10:14:26.691Z,16.35
2023-03-22T10:15:26.711Z,16.07
2023-03-22T10:16:26.809Z,15.87
2023-03-22T10:17:26.639Z,15.89
2023-03-22T10:18:26.652Z,16.16
2023-03-22T10:19:26.624Z,16.51
2023-03-22T10:20:26.620Z,16.81
2023-03-22T10:21:26.635Z,16.90
2023-03-22T10:22:26.617Z,16.83
2023-03-22T10:23:26.603Z,16.81
2023-03-22T10:24:26.638Z,16.88
2023-03-22T10:25:26.544Z,16.94
2023-03-22T10:26:26.540Z,16.93
2023-03-22T10:27:26.512Z,16.74
2023-03-22T10:28:26.518Z,16.42
2023-03-22T10:29:26.493Z,16.13
2023-03-22T10:30:26.509Z,15.96
2023-03-22T10:31:26.543Z,15.97
2023-03-22T10:32:26.462Z,16.16
2023-03-22T10:33:26.452Z,16.39
2023-03-22T10:34:26.434Z,16.57
2023-03-22T10:35:26.483Z,16.69
2023-03-22T10:36:26.409Z,16.61
2023-03-22T10:37:26.429Z,16.35
2023-03-22T10:38:26.384Z,16.08
2023-03-22T10:39:26.372Z,15.85
2023-03-22T10:40:26.361Z,15.68
2023-03-22T10:41:26.341Z,15.60
2023-03-22T10:42:26.331Z,15.60
2023-03-22T10:43:26.343Z,15.51
2023-03-22T10:44:26.314Z,15.28
2023-03-22T10:45:26.292Z,15.11
2023-03-22T10:46:26.316Z,15.08
2023-03-22T10:47:26.288Z,15.16
2023-03-22T10:48:26.317Z,15.35
2023-03-22T10:49:26.231Z,15.66
2023-03-22T10:50:26.248Z,15.99
2023-03-22T10:51:26.214Z,16.38
2023-03-22T10:52:27.226Z,16.73
2023-03-22T10:53:26.190Z,16.75
2023-03-22T10:54:26.303Z,16.56
2023-03-22T10:55:26.158Z,16.36
2023-03-22T10:56:26.159Z,16.13
2023-03-22T10:57:26.117Z,15.92
2023-03-22T10:58:26.112Z,15.74
2023-03-22T10:59:26.099Z,15.64
2023-03-22T11:00:26.122Z,15.51
2023-03-22T11:01:26.169Z,15.39
2023-03-22T11:02:26.251Z,15.37
2023-03-22T11:03:26.047Z,15.43
2023-03-22T11:04:26.060Z,15.57
2023-03-22T11:05:26.046Z,15.80
2023-03-22T11:06:26.038Z,15.94
2023-03-22T11:07:25.992Z,15.94
2023-03-22T11:08:25.988Z,15.86
2023-03-22T11:09:25.994Z,15.82
2023-03-22T11:10:26.026Z,15.88
2023-03-22T11:11:25.990Z,15.88
2023-03-22T11:12:25.944Z,15.76
2023-03-22T11:13:25.918Z,15.58
2023-03-22T11:14:26.021Z,15.44
2023-03-22T11:15:25.899Z,15.34
2023-03-22T11:16:25.951Z,15.28
2023-03-22T11:17:25.876Z,15.35
2023-03-22T11:18:25.845Z,15.53
2023-03-22T11:19:25.885Z,15.73
2023-03-22T11:20:25.940Z,15.81
2023-03-22T11:21:25.796Z,15.78
2023-03-22T11:22:25.826Z,15.79
2023-03-22T11:23:25.859Z,15.83
2023-03-22T11:24:25.795Z,15.78
2023-03-22T11:25:25.760Z,15.72
2023-03-22T11:27:25.722Z,15.90
2023-03-22T11:28:25.738Z,16.18
2023-03-22T11:29:25.728Z,16.55
2023-03-22T11:30:25.677Z,16.81
2023-03-22T11:31:25.705Z,16.80
2023-03-22T11:32:25.730Z,16.65
2023-03-22T11:33:25.633Z,16.48
2023-03-22T11:34:25.669Z,16.29
2023-03-22T11:35:25.644Z,16.05
2023-03-22T11:36:25.622Z,15.79
2023-03-22T11:37:25.608Z,15.53
2023-03-22T11:38:25.590Z,15.33
2023-03-22T11:39:25.644Z,15.22
2023-03-22T11:40:25.596Z,15.22
2023-03-22T11:41:25.559Z,15.21
2023-03-22T11:42:25.570Z,15.09
2023-03-22T11:43:25.505Z,15.02
2023-03-22T11:44:25.506Z,14.98
2023-03-22T11:45:25.521Z,14.96
2023-03-22T11:46:25.543Z,14.93
2023-03-22T11:47:25.503Z,14.95
2023-03-22T11:48:25.639Z,15.03
2023-03-22T11:49:25.451Z,15.13
2023-03-22T11:50:25.441Z,15.20
2023-03-22T11:51:25.415Z,15.25
2023-03-22T11:52:25.417Z,15.30
2023-03-22T11:53:25.412Z,15.32
2023-03-22T11:54:25.385Z,15.38
2023-03-22T11:55:25.399Z,15.60
2023-03-22T11:56:25.355Z,15.93
2023-03-22T11:57:25.339Z,16.28
2023-03-22T11:58:25.327Z,16.50
2023-03-22T11:59:25.306Z,16.49
2023-03-22T12:00:25.298Z,16.36
2023-03-22T12:01:25.279Z,16.24
2023-03-22T12:02:25.428Z,16.07
2023-03-22T12:03:25.401Z,15.85
2023-03-22T12:04:25.341Z,15.78
2023-03-22T12:05:25.225Z,15.87
2023-03-22T12:06:25.269Z,16.10
2023-03-22T12:07:25.217Z,16.40
2023-03-22T12:08:25.251Z,16.59
2023-03-22T12:09:25.210Z,16.67
2023-03-22T12:10:25.201Z,16.82
2023-03-22T12:11:25.178Z,17.01
2023-03-22T12:12:25.167Z,17.10
2023-03-22T12:13:25.166Z,17.08
2023-03-22T12:14:25.134Z,17.05
2023-03-22T12:15:25.132Z,17.18
2023-03-22T12:16:25.386Z,17.47
2023-03-22T12:17:25.156Z,17.81
2023-03-22T12:18:25.160Z,18.04
2023-03-22T12:19:25.079Z,18.10
2023-03-22T12:20:25.079Z,18.17
2023-03-22T12:21:25.072Z,18.11
2023-03-22T12:22:25.073Z,18.02
2023-03-22T12:23:25.093Z,17.93
2023-03-22T12:24:25.100Z,17.68
2023-03-22T12:25:24.982Z,17.32
2023-03-22T12:26:25.127Z,16.97
2023-03-22T12:27:24.969Z,16.74
2023-03-22T12:28:25.096Z,16.61
2023-03-22T12:29:24.974Z,16.62
2023-03-22T12:30:24.937Z,16.79
2023-03-22T12:31:25.016Z,17.18
2023-03-22T12:32:24.965Z,17.62
2023-03-22T12:33:24.899Z,17.82
2023-03-22T12:34:24.886Z,17.81
2023-03-22T12:35:24.877Z,17.80
2023-03-22T12:36:24.880Z,17.82
2023-03-22T12:37:24.878Z,17.79
2023-03-22T12:38:24.838Z,17.71
2023-03-22T12:39:24.810Z,17.68
2023-03-22T12:40:24.787Z,17.64
2023-03-22T12:41:24.789Z,17.63
2023-03-22T12:42:24.758Z,17.66
2023-03-22T12:43:24.768Z,17.75
2023-03-22T12:44:24.750Z,17.84
2023-03-22T12:45:24.768Z,17.74
2023-03-22T12:46:24.829Z,17.64
2023-03-22T12:47:24.749Z,17.54
2023-03-22T12:48:24.756Z,17.33
2023-03-22T12:49:24.669Z,17.17
2023-03-22T12:50:24.682Z,17.04
2023-03-22T12:51:24.871Z,16.96
2023-03-22T12:52:26.422Z,17.07
2023-03-22T12:53:24.616Z,17.38
2023-03-22T12:54:24.586Z,17.82
2023-03-22T12:55:24.652Z,18.21
2023-03-22T12:56:24.581Z,18.52
2023-03-22T12:57:24.591Z,18.78
2023-03-22T12:58:24.565Z,18.85
2023-03-22T12:59:24.538Z,18.77
2023-03-22T13:00:24.553Z,18.64
2023-03-22T13:01:24.529Z,18.36
2023-03-22T13:02:24.579Z,18.05
2023-03-22T13:03:24.602Z,17.93
2023-03-22T13:04:24.461Z,17.93
2023-03-22T13:05:24.485Z,17.80
2023-03-22T13:06:24.439Z,17.50
2023-03-22T13:07:24.468Z,17.21
2023-03-22T13:08:24.463Z,17.19
2023-03-22T13:09:24.409Z,17.36